KSTL/STL METAR and TAF weather

Enter ICAO airport designator
Station Type Date Time Source
KSTL METAR 2017/04/25 03:51 UTC NOAA

KSTL 250351Z 15008KT 10SM CLR 19/03 A2972 RMK AO2 SLP055 T01940028 $


Station Type Date Time Source
KSTL Decoded METAR 2017/04/25 03:51 UTC NOAA

LAMBERT-ST LOUIS INTERNATIONAL AIRPORT , MO, United States (KSTL) 38-45N 90-22W 171M
Apr 24, 2017 - 11:51 PM EDT / 2017.04.25 0351 UTC
Wind: from the SSE (150 degrees) at 9 MPH (8 KT):0
Visibility: 10 mile(s):0
Sky conditions: clear
Temperature: 66.9 F (19.4 C)
Dew Point: 37.0 F (2.8 C)
Relative Humidity: 33%
Pressure (altimeter): 29.72 in. Hg (1006 hPa)
ob: KSTL 250351Z 15008KT 10SM CLR 19/03 A2972 RMK AO2 SLP055 T01940028
cycle: 4

Station Type Date Time Source
KSTL TAF 2017/04/24 21:57 UTC NOAA

TAF
AMD KSTL 242055Z 2421/2524 13010KT P6SM SKC
FM251500 16012G22KT P6SM SCT120


Example: see airport list